sensor_id;sensor_type;location;lat;lon;timestamp;pressure;altitude;pressure_sealevel;temperature;humidity
51359;BME280;37448;51.588;7.248;2022-12-07T00:01:18;101083.75;;;3.16;94.79
51359;BME280;37448;51.588;7.248;2022-12-07T00:03:19;101075.13;;;3.14;94.66
51359;BME280;37448;51.588;7.248;2022-12-07T00:05:19;101075.13;;;3.14;94.89
51359;BME280;37448;51.588;7.248;2022-12-07T00:07:19;101075.16;;;3.16;94.94
51359;BME280;37448;51.588;7.248;2022-12-07T00:09:20;101082.88;;;3.14;95.11
51359;BME280;37448;51.588;7.248;2022-12-07T00:11:22;101079.44;;;3.14;95.31
51359;BME280;37448;51.588;7.248;2022-12-07T00:13:22;101080.34;;;3.16;95.56
51359;BME280;37448;51.588;7.248;2022-12-07T00:15:23;101074.28;;;3.15;94.83
51359;BME280;37448;51.588;7.248;2022-12-07T00:17:23;101069.97;;;3.14;95.48
51359;BME280;37448;51.588;7.248;2022-12-07T00:19:23;101062.19;;;3.11;95.17
51359;BME280;37448;51.588;7.248;2022-12-07T00:21:26;101069.06;;;3.12;94.84
51359;BME280;37448;51.588;7.248;2022-12-07T00:23:27;101073.34;;;3.12;95.50
51359;BME280;37448;51.588;7.248;2022-12-07T00:25:28;101077.66;;;3.11;95.15
51359;BME280;37448;51.588;7.248;2022-12-07T00:27:29;101074.28;;;3.15;95.17
51359;BME280;37448;51.588;7.248;2022-12-07T00:29:30;101066.53;;;3.14;95.21
51359;BME280;37448;51.588;7.248;2022-12-07T00:31:35;101073.41;;;3.13;95.48
51359;BME280;37448;51.588;7.248;2022-12-07T00:33:39;101063.88;;;3.11;94.84
51359;BME280;37448;51.588;7.248;2022-12-07T00:35:39;101071.75;;;3.17;94.57
51359;BME280;37448;51.588;7.248;2022-12-07T00:37:40;101067.44;;;3.16;94.34
51359;BME280;37448;51.588;7.248;2022-12-07T00:39:40;101069.13;;;3.15;95.34
51359;BME280;37448;51.588;7.248;2022-12-07T00:41:40;101066.53;;;3.14;94.80
51359;BME280;37448;51.588;7.248;2022-12-07T00:43:42;101066.56;;;3.17;95.09
51359;BME280;37448;51.588;7.248;2022-12-07T00:45:42;101065.69;;;3.16;94.62
51359;BME280;37448;51.588;7.248;2022-12-07T00:47:43;101063.13;;;3.16;94.37
51359;BME280;37448;51.588;7.248;2022-12-07T00:49:43;101064.84;;;3.16;94.76
51359;BME280;37448;51.588;7.248;2022-12-07T00:51:43;101064.00;;;3.19;94.49
51359;BME280;37448;51.588;7.248;2022-12-07T00:53:44;101060.53;;;3.16;94.66
51359;BME280;37448;51.588;7.248;2022-12-07T00:55:45;101057.94;;;3.15;94.36
51359;BME280;37448;51.588;7.248;2022-12-07T00:57:46;101055.38;;;3.15;94.44
51359;BME280;37448;51.588;7.248;2022-12-07T00:59:47;101052.78;;;3.15;94.51
51359;BME280;37448;51.588;7.248;2022-12-07T01:01:48;101051.91;;;3.14;94.27
51359;BME280;37448;51.588;7.248;2022-12-07T01:03:48;101050.16;;;3.13;94.51
51359;BME280;37448;51.588;7.248;2022-12-07T01:05:53;101048.44;;;3.12;94.97
51359;BME280;37448;51.588;7.248;2022-12-07T01:07:53;101048.44;;;3.12;94.45
51359;BME280;37448;51.588;7.248;2022-12-07T01:09:54;101044.97;;;3.12;94.06
51359;BME280;37448;51.588;7.248;2022-12-07T01:11:54;101041.53;;;3.11;94.63
51359;BME280;37448;51.588;7.248;2022-12-07T01:13:56;101040.69;;;3.12;94.59
51359;BME280;37448;51.588;7.248;2022-12-07T01:15:58;101034.63;;;3.10;94.18
51359;BME280;37448;51.588;7.248;2022-12-07T01:17:59;101039.75;;;3.07;94.72
51359;BME280;37448;51.588;7.248;2022-12-07T01:20:00;101034.59;;;3.07;94.44
51359;BME280;37448;51.588;7.248;2022-12-07T01:22:01;101044.91;;;3.07;94.44
51359;BME280;37448;51.588;7.248;2022-12-07T01:24:02;101037.13;;;3.06;94.62
51359;BME280;37448;51.588;7.248;2022-12-07T01:26:05;101045.72;;;3.05;94.33
51359;BME280;37448;51.588;7.248;2022-12-07T01:28:07;101047.44;;;3.04;94.28
51359;BME280;37448;51.588;7.248;2022-12-07T01:30:09;101051.75;;;3.05;94.64
51359;BME280;37448;51.588;7.248;2022-12-07T01:32:10;101047.47;;;3.06;94.56
51359;BME280;37448;51.588;7.248;2022-12-07T01:34:11;101053.50;;;3.06;94.35
51359;BME280;37448;51.588;7.248;2022-12-07T01:36:25;101054.34;;;3.07;93.95
51359;BME280;37448;51.588;7.248;2022-12-07T01:38:26;101048.34;;;3.06;94.98
51359;BME280;37448;51.588;7.248;2022-12-07T01:40:27;101053.50;;;3.06;94.07
51359;BME280;37448;51.588;7.248;2022-12-07T01:42:28;101056.09;;;3.06;94.55
51359;BME280;37448;51.588;7.248;2022-12-07T01:44:29;101056.94;;;3.05;94.14
51359;BME280;37448;51.588;7.248;2022-12-07T01:46:32;101060.41;;;3.07;94.91
51359;BME280;37448;51.588;7.248;2022-12-07T01:48:38;101058.66;;;3.06;94.43
51359;BME280;37448;51.588;7.248;2022-12-07T01:50:42;101053.47;;;3.03;94.30
51359;BME280;37448;51.588;7.248;2022-12-07T01:52:46;101053.47;;;3.03;94.42
51359;BME280;37448;51.588;7.248;2022-12-07T01:54:51;101051.72;;;3.04;94.90
51359;BME280;37448;51.588;7.248;2022-12-07T01:56:55;101051.72;;;3.02;94.83
51359;BME280;37448;51.588;7.248;2022-12-07T01:58:57;101050.84;;;3.01;94.84
51359;BME280;37448;51.588;7.248;2022-12-07T02:00:58;101049.94;;;3.01;94.66
51359;BME280;37448;51.588;7.248;2022-12-07T02:03:09;101052.53;;;2.99;94.55
51359;BME280;37448;51.588;7.248;2022-12-07T02:05:11;101049.91;;;2.98;94.05
51359;BME280;37448;51.588;7.248;2022-12-07T02:07:13;101037.84;;;2.97;94.25
51359;BME280;37448;51.588;7.248;2022-12-07T02:09:14;101037.00;;;2.96;94.02
51359;BME280;37448;51.588;7.248;2022-12-07T02:11:14;101046.47;;;2.97;94.59
51359;BME280;37448;51.588;7.248;2022-12-07T02:13:20;101039.53;;;2.95;93.97
51359;BME280;37448;51.588;7.248;2022-12-07T02:15:32;101031.78;;;2.93;93.74
51359;BME280;37448;51.588;7.248;2022-12-07T02:20:03;101034.41;;;2.98;94.29
51359;BME280;37448;51.588;7.248;2022-12-07T02:27:18;101038.69;;;2.94;93.88
51359;BME280;37448;51.588;7.248;2022-12-07T02:29:46;101054.97;;;2.92;94.29
51359;BME280;37448;51.588;7.248;2022-12-07T02:32:17;101054.13;;;2.91;94.55
51359;BME280;37448;51.588;7.248;2022-12-07T02:34:44;101036.03;;;2.90;94.87
51359;BME280;37448;51.588;7.248;2022-12-07T02:36:52;101048.03;;;2.87;94.05
51359;BME280;37448;51.588;7.248;2022-12-07T02:39:00;101050.59;;;2.87;94.32
51359;BME280;37448;51.588;7.248;2022-12-07T02:41:03;101049.72;;;2.85;94.78
51359;BME280;37448;51.588;7.248;2022-12-07T02:43:20;101051.41;;;2.83;94.70
51359;BME280;37448;51.588;7.248;2022-12-07T02:45:25;101046.19;;;2.80;94.73
51359;BME280;37448;51.588;7.248;2022-12-07T02:47:28;101044.38;;;2.76;94.33
51359;BME280;37448;51.588;7.248;2022-12-07T02:49:30;101043.53;;;2.77;94.94
51359;BME280;37448;51.588;7.248;2022-12-07T02:51:32;101036.59;;;2.73;94.83
51359;BME280;37448;51.588;7.248;2022-12-07T02:53:38;101040.91;;;2.74;94.39
51359;BME280;37448;51.588;7.248;2022-12-07T02:55:40;101041.75;;;2.71;94.27
51359;BME280;37448;51.588;7.248;2022-12-07T02:57:53;101040.81;;;2.68;94.98
51359;BME280;37448;51.588;7.248;2022-12-07T03:00:03;101039.91;;;2.66;94.98
51359;BME280;37448;51.588;7.248;2022-12-07T03:04:33;101047.50;;;2.56;94.97
51359;BME280;37448;51.588;7.248;2022-12-07T03:06:42;101042.22;;;2.50;94.65
51359;BME280;37448;51.588;7.248;2022-12-07T03:08:52;101033.59;;;2.48;95.19
51359;BME280;37448;51.588;7.248;2022-12-07T03:11:03;101042.06;;;2.41;94.57
51359;BME280;37448;51.588;7.248;2022-12-07T03:15:22;101046.22;;;2.33;94.30
51359;BME280;37448;51.588;7.248;2022-12-07T03:17:30;101047.84;;;2.29;94.88
51359;BME280;37448;51.588;7.248;2022-12-07T03:19:33;101046.84;;;2.22;94.63
51359;BME280;37448;51.588;7.248;2022-12-07T03:22:02;101043.31;;;2.17;94.51
51359;BME280;37448;51.588;7.248;2022-12-07T03:24:08;101044.06;;;2.11;94.61
51359;BME280;37448;51.588;7.248;2022-12-07T03:26:12;101050.00;;;2.06;94.33
51359;BME280;37448;51.588;7.248;2022-12-07T03:28:16;101048.16;;;2.01;94.85
51359;BME280;37448;51.588;7.248;2022-12-07T03:30:48;101041.22;;;1.97;94.47
51359;BME280;37448;51.588;7.248;2022-12-07T03:32:53;101048.03;;;1.95;94.62
51359;BME280;37448;51.588;7.248;2022-12-07T03:34:57;101042.84;;;1.92;94.16
51359;BME280;37448;51.588;7.248;2022-12-07T03:37:10;101040.22;;;1.91;94.20
51359;BME280;37448;51.588;7.248;2022-12-07T03:39:22;101037.63;;;1.89;94.73
51359;BME280;37448;51.588;7.248;2022-12-07T03:41:30;101032.41;;;1.86;94.83
51359;BME280;37448;51.588;7.248;2022-12-07T03:43:31;101033.19;;;1.82;94.50
51359;BME280;37448;51.588;7.248;2022-12-07T03:45:39;101030.63;;;1.82;94.54
51359;BME280;37448;51.588;7.248;2022-12-07T03:56:50;101037.22;;;1.70;94.09
51359;BME280;37448;51.588;7.248;2022-12-07T03:58:52;101030.28;;;1.66;94.93
51359;BME280;37448;51.588;7.248;2022-12-07T04:00:53;101031.06;;;1.64;95.22
51359;BME280;37448;51.588;7.248;2022-12-07T04:02:55;101031.13;;;1.65;94.62
51359;BME280;37448;51.588;7.248;2022-12-07T04:04:56;101032.81;;;1.65;95.04
51359;BME280;37448;51.588;7.248;2022-12-07T04:06:56;101028.47;;;1.62;95.29
51359;BME280;37448;51.588;7.248;2022-12-07T04:08:57;101040.50;;;1.63;95.28
51359;BME280;37448;51.588;7.248;2022-12-07T04:10:57;101030.22;;;1.63;95.63
51359;BME280;37448;51.588;7.248;2022-12-07T04:12:57;101035.31;;;1.60;95.40
51359;BME280;37448;51.588;7.248;2022-12-07T04:14:58;101031.06;;;1.62;95.30
51359;BME280;37448;51.588;7.248;2022-12-07T04:16:59;101028.47;;;1.62;95.32
51359;BME280;37448;51.588;7.248;2022-12-07T04:18:59;101033.63;;;1.62;95.14
51359;BME280;37448;51.588;7.248;2022-12-07T04:20:59;101034.47;;;1.63;95.16
51359;BME280;37448;51.588;7.248;2022-12-07T04:23:00;101034.47;;;1.63;95.16
51359;BME280;37448;51.588;7.248;2022-12-07T04:25:00;101033.69;;;1.65;94.89
51359;BME280;37448;51.588;7.248;2022-12-07T04:27:01;101030.16;;;1.60;95.88
51359;BME280;37448;51.588;7.248;2022-12-07T04:29:01;101029.34;;;1.63;95.40
51359;BME280;37448;51.588;7.248;2022-12-07T04:31:02;101019.91;;;1.63;95.13
51359;BME280;37448;51.588;7.248;2022-12-07T04:33:02;101031.94;;;1.64;95.63
51359;BME280;37448;51.588;7.248;2022-12-07T04:35:03;101033.66;;;1.64;95.17
51359;BME280;37448;51.588;7.248;2022-12-07T04:37:03;101032.78;;;1.63;95.42
51359;BME280;37448;51.588;7.248;2022-12-07T04:39:05;101030.22;;;1.63;95.68
51359;BME280;37448;51.588;7.248;2022-12-07T04:41:07;101038.84;;;1.65;95.30
51359;BME280;37448;51.588;7.248;2022-12-07T04:43:07;101035.44;;;1.66;95.71
51359;BME280;37448;51.588;7.248;2022-12-07T04:45:08;101031.19;;;1.68;95.39
51359;BME280;37448;51.588;7.248;2022-12-07T04:47:08;101025.19;;;1.69;96.00
51359;BME280;37448;51.588;7.248;2022-12-07T04:49:10;101033.81;;;1.71;95.71
51359;BME280;37448;51.588;7.248;2022-12-07T04:51:11;101026.13;;;1.73;95.75
51359;BME280;37448;51.588;7.248;2022-12-07T04:53:11;101035.66;;;1.77;95.43
51359;BME280;37448;51.588;7.248;2022-12-07T04:55:12;101033.09;;;1.77;95.51
51359;BME280;37448;51.588;7.248;2022-12-07T04:57:12;101030.53;;;1.79;95.77
51359;BME280;37448;51.588;7.248;2022-12-07T04:59:14;101028.84;;;1.81;96.04
51359;BME280;37448;51.588;7.248;2022-12-07T05:01:16;101023.78;;;1.84;95.83
51359;BME280;37448;51.588;7.248;2022-12-07T05:03:16;101017.69;;;1.80;95.68
51359;BME280;37448;51.588;7.248;2022-12-07T05:05:17;101014.16;;;1.77;95.52
51359;BME280;37448;51.588;7.248;2022-12-07T05:07:17;101013.34;;;1.78;95.67
51359;BME280;37448;51.588;7.248;2022-12-07T05:09:18;101017.66;;;1.79;95.46
51359;BME280;37448;51.588;7.248;2022-12-07T05:11:18;101021.91;;;1.77;95.54
51359;BME280;37448;51.588;7.248;2022-12-07T05:13:37;101023.56;;;1.75;95.14
51359;BME280;37448;51.588;7.248;2022-12-07T05:15:38;101027.94;;;1.77;95.38
51359;BME280;37448;51.588;7.248;2022-12-07T05:17:38;101024.47;;;1.75;95.05
51359;BME280;37448;51.588;7.248;2022-12-07T05:19:38;101002.78;;;1.65;95.13
51359;BME280;37448;51.588;7.248;2022-12-07T05:21:40;101028.78;;;1.78;94.90
51359;BME280;37448;51.588;7.248;2022-12-07T05:23:40;101027.03;;;1.77;95.62
51359;BME280;37448;51.588;7.248;2022-12-07T05:25:40;101027.00;;;1.74;95.47
51359;BME280;37448;51.588;7.248;2022-12-07T05:27:41;101021.88;;;1.75;95.58
51359;BME280;37448;51.588;7.248;2022-12-07T05:29:41;101026.19;;;1.76;95.13
51359;BME280;37448;51.588;7.248;2022-12-07T05:31:43;101027.03;;;1.77;95.08
51359;BME280;37448;51.588;7.248;2022-12-07T05:33:43;101023.63;;;1.78;95.35
51359;BME280;37448;51.588;7.248;2022-12-07T05:35:44;101017.66;;;1.79;95.24
51359;BME280;37448;51.588;7.248;2022-12-07T05:37:44;101028.06;;;1.83;95.46
51359;BME280;37448;51.588;7.248;2022-12-07T05:39:45;101020.31;;;1.82;95.55
51359;BME280;37448;51.588;7.248;2022-12-07T05:41:45;101020.31;;;1.82;95.79
51359;BME280;37448;51.588;7.248;2022-12-07T05:44:05;101016.84;;;1.81;95.79
51359;BME280;37448;51.588;7.248;2022-12-07T05:46:05;101022.06;;;1.83;95.17
51359;BME280;37448;51.588;7.248;2022-12-07T05:48:06;101023.78;;;1.84;95.69
51359;BME280;37448;51.588;7.248;2022-12-07T05:50:06;101021.22;;;1.84;95.32
51359;BME280;37448;51.588;7.248;2022-12-07T05:52:07;101020.31;;;1.82;95.61
51359;BME280;37448;51.588;7.248;2022-12-07T05:54:07;101025.47;;;1.82;95.19
51359;BME280;37448;51.588;7.248;2022-12-07T05:56:08;101022.06;;;1.83;95.60
51359;BME280;37448;51.588;7.248;2022-12-07T05:58:08;101015.06;;;1.79;95.53
51359;BME280;37448;51.588;7.248;2022-12-07T06:00:27;101021.97;;;1.80;95.89
51359;BME280;37448;51.588;7.248;2022-12-07T06:02:27;101024.63;;;1.83;95.79
51359;BME280;37448;51.588;7.248;2022-12-07T06:04:30;101022.88;;;1.82;95.20
51359;BME280;37448;51.588;7.248;2022-12-07T06:06:30;101018.63;;;1.84;95.60
51359;BME280;37448;51.588;7.248;2022-12-07T06:08:31;101017.69;;;1.80;95.12
51359;BME280;37448;51.588;7.248;2022-12-07T06:10:31;101017.75;;;1.82;95.61
51359;BME280;37448;51.588;7.248;2022-12-07T06:12:31;101018.47;;;1.78;95.34
51359;BME280;37448;51.588;7.248;2022-12-07T06:14:35;101016.69;;;1.74;95.01
51359;BME280;37448;51.588;7.248;2022-12-07T06:16:35;101007.28;;;1.74;95.40
51359;BME280;37448;51.588;7.248;2022-12-07T06:18:35;100990.94;;;1.74;95.53
51359;BME280;37448;51.588;7.248;2022-12-07T06:20:36;101001.22;;;1.74;95.61
51359;BME280;37448;51.588;7.248;2022-12-07T06:22:36;101004.66;;;1.72;95.27
51359;BME280;37448;51.588;7.248;2022-12-07T06:24:37;101001.97;;;1.68;95.52
51359;BME280;37448;51.588;7.248;2022-12-07T06:26:38;101012.22;;;1.65;94.91
51359;BME280;37448;51.588;7.248;2022-12-07T06:28:38;101016.50;;;1.64;94.96
51359;BME280;37448;51.588;7.248;2022-12-07T06:30:39;101013.81;;;1.60;95.53
51359;BME280;37448;51.588;7.248;2022-12-07T06:32:39;101018.13;;;1.59;95.51
51359;BME280;37448;51.588;7.248;2022-12-07T06:34:39;101016.28;;;1.55;95.63
51359;BME280;37448;51.588;7.248;2022-12-07T06:36:40;101018.03;;;1.56;95.84
51359;BME280;37448;51.588;7.248;2022-12-07T06:38:40;101024.00;;;1.53;96.05
51359;BME280;37448;51.588;7.248;2022-12-07T06:40:41;101024.00;;;1.55;95.72
51359;BME280;37448;51.588;7.248;2022-12-07T06:42:41;101016.28;;;1.53;95.91
51359;BME280;37448;51.588;7.248;2022-12-07T06:44:41;101024.91;;;1.55;95.63
51359;BME280;37448;51.588;7.248;2022-12-07T06:46:42;101030.00;;;1.54;95.15
51359;BME280;37448;51.588;7.248;2022-12-07T06:48:43;101029.94;;;1.51;95.49
51359;BME280;37448;51.588;7.248;2022-12-07T06:50:47;101024.78;;;1.49;95.02
51359;BME280;37448;51.588;7.248;2022-12-07T06:52:47;101028.97;;;1.46;94.79
51359;BME280;37448;51.588;7.248;2022-12-07T06:54:48;101026.25;;;1.39;94.51
51359;BME280;37448;51.588;7.248;2022-12-07T06:56:48;101031.41;;;1.39;95.39
51359;BME280;37448;51.588;7.248;2022-12-07T06:58:49;101038.22;;;1.37;95.29
51359;BME280;37448;51.588;7.248;2022-12-07T07:00:49;101036.50;;;1.38;95.15
51359;BME280;37448;51.588;7.248;2022-12-07T07:02:50;101037.28;;;1.34;95.07
51359;BME280;37448;51.588;7.248;2022-12-07T07:04:50;101037.28;;;1.34;95.35
51359;BME280;37448;51.588;7.248;2022-12-07T07:06:51;101036.34;;;1.30;94.76
51359;BME280;37448;51.588;7.248;2022-12-07T07:08:51;101028.47;;;1.24;95.05
51359;BME280;37448;51.588;7.248;2022-12-07T07:10:51;101029.31;;;1.23;94.86
51359;BME280;37448;51.588;7.248;2022-12-07T07:12:52;101032.72;;;1.22;95.20
51359;BME280;37448;51.588;7.248;2022-12-07T07:14:52;101033.50;;;1.19;95.36
51359;BME280;37448;51.588;7.248;2022-12-07T07:16:53;101036.06;;;1.18;95.13
51359;BME280;37448;51.588;7.248;2022-12-07T07:18:53;101034.28;;;1.15;95.02
51359;BME280;37448;51.588;7.248;2022-12-07T07:20:53;101035.94;;;1.11;94.67
51359;BME280;37448;51.588;7.248;2022-12-07T07:22:55;101035.81;;;1.08;94.86
51359;BME280;37448;51.588;7.248;2022-12-07T07:24:55;101033.19;;;1.05;94.60
51359;BME280;37448;51.588;7.248;2022-12-07T07:26:56;101040.03;;;1.05;94.79
51359;BME280;37448;51.588;7.248;2022-12-07T07:28:56;101039.09;;;1.01;94.68
51359;BME280;37448;51.588;7.248;2022-12-07T07:30:56;101040.75;;;0.97;94.71
51359;BME280;37448;51.588;7.248;2022-12-07T07:32:58;101045.75;;;0.93;94.32
51359;BME280;37448;51.588;7.248;2022-12-07T07:34:58;101036.25;;;0.89;94.69
51359;BME280;37448;51.588;7.248;2022-12-07T07:36:59;101037.91;;;0.87;94.68
51359;BME280;37448;51.588;7.248;2022-12-07T07:38:59;101041.25;;;0.84;94.61
51359;BME280;37448;51.588;7.248;2022-12-07T07:41:00;101036.91;;;0.81;94.14
51359;BME280;37448;51.588;7.248;2022-12-07T07:43:00;101040.22;;;0.77;94.75
51359;BME280;37448;51.588;7.248;2022-12-07T07:45:00;101041.94;;;0.77;94.63
51359;BME280;37448;51.588;7.248;2022-12-07T07:47:01;101051.34;;;0.76;95.08
51359;BME280;37448;51.588;7.248;2022-12-07T07:49:01;101047.00;;;0.74;95.08
51359;BME280;37448;51.588;7.248;2022-12-07T07:51:05;101049.66;;;0.77;94.79
51359;BME280;37448;51.588;7.248;2022-12-07T07:53:07;101049.59;;;0.74;94.80
51359;BME280;37448;51.588;7.248;2022-12-07T07:55:08;101045.34;;;0.76;94.99
51359;BME280;37448;51.588;7.248;2022-12-07T07:57:08;101041.88;;;0.75;95.42
51359;BME280;37448;51.588;7.248;2022-12-07T07:59:09;101043.63;;;0.76;95.10
51359;BME280;37448;51.588;7.248;2022-12-07T08:01:09;101045.38;;;0.77;95.79
51359;BME280;37448;51.588;7.248;2022-12-07T08:03:09;101049.75;;;0.81;95.37
51359;BME280;37448;51.588;7.248;2022-12-07T08:05:11;101051.59;;;0.85;95.22
51359;BME280;37448;51.588;7.248;2022-12-07T08:07:13;101057.72;;;0.91;95.47
51359;BME280;37448;51.588;7.248;2022-12-07T08:09:13;101052.66;;;0.94;95.46
51359;BME280;37448;51.588;7.248;2022-12-07T08:11:14;101048.53;;;1.00;96.21
51359;BME280;37448;51.588;7.248;2022-12-07T08:13:17;101051.31;;;1.10;96.34
51359;BME280;37448;51.588;7.248;2022-12-07T08:15:17;101055.88;;;1.22;95.82
51359;BME280;37448;51.588;7.248;2022-12-07T08:17:18;101060.50;;;1.35;95.96
51359;BME280;37448;51.588;7.248;2022-12-07T08:19:18;101063.28;;;1.45;95.94
51359;BME280;37448;51.588;7.248;2022-12-07T08:21:19;101065.19;;;1.55;95.95
51359;BME280;37448;51.588;7.248;2022-12-07T08:23:19;101059.44;;;1.65;95.51
51359;BME280;37448;51.588;7.248;2022-12-07T08:25:20;101064.84;;;1.78;95.82
51359;BME280;37448;51.588;7.248;2022-12-07T08:27:22;101065.00;;;1.84;94.54
51359;BME280;37448;51.588;7.248;2022-12-07T08:29:26;101068.53;;;1.89;94.14
51359;BME280;37448;51.588;7.248;2022-12-07T08:31:27;101060.94;;;1.95;94.45
51359;BME280;37448;51.588;7.248;2022-12-07T08:33:28;101061.88;;;2.00;94.53
51359;BME280;37448;51.588;7.248;2022-12-07T08:35:29;101069.56;;;1.97;94.46
51359;BME280;37448;51.588;7.248;2022-12-07T08:37:29;101064.38;;;1.96;94.08
51359;BME280;37448;51.588;7.248;2022-12-07T08:39:29;101070.38;;;1.96;93.67
51359;BME280;37448;51.588;7.248;2022-12-07T08:41:30;101068.72;;;1.98;94.40
51359;BME280;37448;51.588;7.248;2022-12-07T08:43:31;101067.84;;;1.98;94.00
51359;BME280;37448;51.588;7.248;2022-12-07T08:45:31;101063.56;;;1.98;93.79
51359;BME280;37448;51.588;7.248;2022-12-07T08:47:37;101067.84;;;1.98;94.32
51359;BME280;37448;51.588;7.248;2022-12-07T08:49:43;101068.66;;;1.95;93.43
51359;BME280;37448;51.588;7.248;2022-12-07T08:51:46;101061.81;;;1.97;93.92
51359;BME280;37448;51.588;7.248;2022-12-07T08:53:47;101070.38;;;1.95;93.83
51359;BME280;37448;51.588;7.248;2022-12-07T08:55:48;101060.09;;;1.96;93.85
51359;BME280;37448;51.588;7.248;2022-12-07T08:57:49;101058.44;;;2.00;94.25
51359;BME280;37448;51.588;7.248;2022-12-07T08:59:50;101055.94;;;2.03;93.53
51359;BME280;37448;51.588;7.248;2022-12-07T09:01:51;101057.78;;;2.10;94.05
51359;BME280;37448;51.588;7.248;2022-12-07T09:03:51;101058.75;;;2.15;93.61
51359;BME280;37448;51.588;7.248;2022-12-07T09:05:53;101057.38;;;2.32;94.33
51359;BME280;37448;51.588;7.248;2022-12-07T09:07:57;101048.09;;;2.43;92.25
51359;BME280;37448;51.588;7.248;2022-12-07T09:10:00;101056.94;;;2.54;92.61
51359;BME280;37448;51.588;7.248;2022-12-07T09:12:00;101052.72;;;2.60;91.61
51359;BME280;37448;51.588;7.248;2022-12-07T09:14:01;101054.41;;;2.57;91.44
51359;BME280;37448;51.588;7.248;2022-12-07T09:16:01;101062.28;;;2.65;92.13
51359;BME280;37448;51.588;7.248;2022-12-07T09:18:02;101057.13;;;2.67;92.67
51359;BME280;37448;51.588;7.248;2022-12-07T09:20:04;101061.50;;;2.71;92.71
51359;BME280;37448;51.588;7.248;2022-12-07T09:22:04;101063.28;;;2.75;92.58
51359;BME280;37448;51.588;7.248;2022-12-07T09:24:05;101064.06;;;2.69;92.24
51359;BME280;37448;51.588;7.248;2022-12-07T09:26:05;101064.06;;;2.69;92.31
51359;BME280;37448;51.588;7.248;2022-12-07T09:28:06;101062.19;;;2.61;91.67
51359;BME280;37448;51.588;7.248;2022-12-07T09:30:07;101062.28;;;2.67;92.82
51359;BME280;37448;51.588;7.248;2022-12-07T09:32:07;101063.13;;;2.66;92.75
51359;BME280;37448;51.588;7.248;2022-12-07T09:34:08;101062.31;;;2.68;92.29
51359;BME280;37448;51.588;7.248;2022-12-07T09:36:08;101051.16;;;2.69;92.39
51359;BME280;37448;51.588;7.248;2022-12-07T09:38:09;101058.88;;;2.68;91.83
51359;BME280;37448;51.588;7.248;2022-12-07T09:40:11;101058.91;;;2.69;91.93
51359;BME280;37448;51.588;7.248;2022-12-07T09:42:34;101060.66;;;2.72;92.74
51359;BME280;37448;51.588;7.248;2022-12-07T09:44:35;101058.06;;;2.72;91.69
51359;BME280;37448;51.588;7.248;2022-12-07T09:46:39;101052.97;;;2.75;92.64
51359;BME280;37448;51.588;7.248;2022-12-07T09:48:40;101051.19;;;2.71;91.57
51359;BME280;37448;51.588;7.248;2022-12-07T09:50:42;101048.88;;;2.88;92.38
51359;BME280;37448;51.588;7.248;2022-12-07T09:52:44;101052.88;;;3.21;93.43
51359;BME280;37448;51.588;7.248;2022-12-07T09:54:47;101050.84;;;3.60;91.15
51359;BME280;37448;51.588;7.248;2022-12-07T09:56:49;101053.41;;;4.28;88.44
51359;BME280;37448;51.588;7.248;2022-12-07T09:58:50;101043.66;;;4.92;88.90
51359;BME280;37448;51.588;7.248;2022-12-07T10:00:54;101038.94;;;5.54;91.58
51359;BME280;37448;51.588;7.248;2022-12-07T10:02:58;101039.13;;;5.91;81.78
51359;BME280;37448;51.588;7.248;2022-12-07T10:04:59;101045.84;;;5.58;79.77
51359;BME280;37448;51.588;7.248;2022-12-07T10:06:59;101044.81;;;5.25;82.27
51359;BME280;37448;51.588;7.248;2022-12-07T10:08:59;101048.78;;;4.85;80.89
51359;BME280;37448;51.588;7.248;2022-12-07T10:11:02;101059.81;;;4.64;83.51
51359;BME280;37448;51.588;7.248;2022-12-07T10:13:13;101046.16;;;3.96;84.36
51359;BME280;37448;51.588;7.248;2022-12-07T10:15:13;101047.75;;;3.86;85.10
51359;BME280;37448;51.588;7.248;2022-12-07T10:17:39;101047.53;;;3.70;86.48
51359;BME280;37448;51.588;7.248;2022-12-07T10:19:40;101040.81;;;3.82;87.98
51359;BME280;37448;51.588;7.248;2022-12-07T10:21:59;101045.13;;;3.84;87.92
51359;BME280;37448;51.588;7.248;2022-12-07T10:24:05;101039.13;;;3.87;87.89
51359;BME280;37448;51.588;7.248;2022-12-07T10:26:32;101040.16;;;4.00;88.59
51359;BME280;37448;51.588;7.248;2022-12-07T10:28:35;101035.00;;;4.00;85.88
51359;BME280;37448;51.588;7.248;2022-12-07T10:30:59;101026.44;;;4.07;87.54
51359;BME280;37448;51.588;7.248;2022-12-07T10:33:02;101027.38;;;4.11;87.63
51359;BME280;37448;51.588;7.248;2022-12-07T10:35:23;101032.41;;;3.98;85.96
51359;BME280;37448;51.588;7.248;2022-12-07T10:37:25;101027.75;;;3.72;84.29
51359;BME280;37448;51.588;7.248;2022-12-07T10:39:28;101021.72;;;3.72;85.43
51359;BME280;37448;51.588;7.248;2022-12-07T10:41:28;101014.94;;;3.79;86.41
51359;BME280;37448;51.588;7.248;2022-12-07T10:43:29;101025.31;;;3.82;86.49
51359;BME280;37448;51.588;7.248;2022-12-07T10:45:29;101026.97;;;3.77;86.22
51359;BME280;37448;51.588;7.248;2022-12-07T10:47:55;101022.63;;;3.74;86.35
51359;BME280;37448;51.588;7.248;2022-12-07T11:00:19;100998.41;;;3.66;86.02
51359;BME280;37448;51.588;7.248;2022-12-07T11:07:02;100993.22;;;3.64;86.64
51359;BME280;37448;51.588;7.248;2022-12-07T11:12:13;100988.78;;;3.54;86.79
51359;BME280;37448;51.588;7.248;2022-12-07T11:14:25;100999.13;;;3.54;87.60
51359;BME280;37448;51.588;7.248;2022-12-07T11:22:09;100981.88;;;3.53;87.48
51359;BME280;37448;51.588;7.248;2022-12-07T11:24:18;100987.13;;;3.59;87.80
51359;BME280;37448;51.588;7.248;2022-12-07T11:31:06;100979.56;;;3.73;87.06
51359;BME280;37448;51.588;7.248;2022-12-07T11:33:19;100973.63;;;3.82;89.00
51359;BME280;37448;51.588;7.248;2022-12-07T11:35:45;100977.09;;;3.84;87.10
51359;BME280;37448;51.588;7.248;2022-12-07T11:37:47;100972.78;;;3.83;85.75
51359;BME280;37448;51.588;7.248;2022-12-07T11:40:01;100979.69;;;3.85;85.66
51359;BME280;37448;51.588;7.248;2022-12-07T11:42:28;100984.00;;;3.85;85.39